Impacts METAR Board INFO
IDs:

KDFW - Dallas-Ft Worth Intl, TX, US

Updated at: 0627 UTC 14 Dec 2017
Potential Impact None Slight Moderate High
Time13/18Z 13/19Z 13/20Z 13/21Z 13/22Z 13/23Z 14/00Z 14/01Z 14/02Z 14/03Z 14/04Z 14/05Z 14/06Z
VIS10 10 10 10 10 10 10 10 10 10 10 10 8
CIG-- -- -- -- -- -- -- -- -- -- -- -- --
CoverFEWFEWFEWCLRFEWFEWFEWFEWCLRCLRCLRCLRCLR
FltCatVFRVFRVFRVFRVFRVFRVFRVFRVFRVFRVFRVFRVFR
WX--------------------------
WDir230230240250250210200200240240220190190
WSpd10 14 10 13 11 6 5 8 6 3 6 4 4
WGst-- 21 -- -- -- -- -- -- -- -- -- -- --
Raw hourly METARs
KDFW 131753Z 23010KT 10SM FEW300 20/M07 A2998 RMK AO2 SLP149 T02001067 10200 20011 58020
KDFW 131853Z 23014G21KT 10SM FEW300 23/M08 A2994 RMK AO2 SLP133 T02331083
KDFW 131953Z 24010KT 10SM FEW004 FEW300 24/M07 A2990 RMK AO2 SLP123 FU FEW004 W T02391067
KDFW 132053Z 25013KT 10SM CLR 25/M07 A2988 RMK AO2 SLP113 T02501072 56034
KDFW 132153Z COR 25011KT 10SM FEW300 24/M08 A2986 RMK AO2 SLP108 T02441078
KDFW 132253Z 21006KT 10SM FEW300 22/M06 A2985 RMK AO2 SLP107 T02171061
KDFW 132353Z 20005KT 10SM FEW300 19/M07 A2986 RMK AO2 SLP108 T01891067 10250 20178 55007
KDFW 140053Z 20008KT 10SM FEW300 16/M05 A2985 RMK AO2 SLP107 T01561050
KDFW 140153Z 24006KT 10SM CLR 14/M03 A2987 RMK AO2 SLP114 T01441028
KDFW 140253Z 24003KT 10SM CLR 14/M02 A2989 RMK AO2 SLP118 T01441022 53010
KDFW 140353Z 22006KT 10SM CLR 12/M02 A2988 RMK AO2 SLP117 T01171022
KDFW 140453Z 19004KT 10SM CLR 10/M01 A2988 RMK AO2 SLP116 T01001011
KDFW 140553Z 19004KT 8SM CLR 07/M01 A2988 RMK AO2 SLP116 T00721011 10189 20072 402500011 55001